This is the latest recevied weather packets stored in our database for station/object N8QQQ. If no packets are shown the sender has not sent any weather packets the latest 10 day(s).
| Time | Temp. | Humidity | Pressure | Rain* | Wind** | Luminosity | Snow |
|---|---|---|---|---|---|---|---|
| 1778085033 | 2.78° C | 60% | 1011.8 hPa | 0 mm | - | 83 W/m² | - |
| 1778084730 | 2.78° C | 61% | 1011.9 hPa | 0 mm | - | 71 W/m² | - |
| 1778084422 | 2.78° C | 59% | 1011.9 hPa | 0 mm | - | 67 W/m² | - |
| 1778084119 | 3.33° C | 58% | 1011.8 hPa | 0 mm | - | 117 W/m² | - |
| 1778083816 | 2.78° C | 59% | 1012 hPa | 0 mm | - | 155 W/m² | - |
| 1778083514 | 2.78° C | 61% | 1012 hPa | 0 mm | - | 86 W/m² | - |
| 1778083211 | 2.78° C | 60% | 1011.9 hPa | 0 mm | - | 76 W/m² | - |
| 1778082909 | 3.33° C | 60% | 1011.8 hPa | 0 mm | - | 128 W/m² | - |
| 1778081801 | 2.22° C | 64% | 1011.7 hPa | 0 mm | - | 121 W/m² | - |
| 1778081498 | 2.22° C | 63% | 1011.9 hPa | 0 mm | - | 97 W/m² | - |
| 1778081194 | 2.22° C | 62% | 1011.8 hPa | 0 mm | - | 88 W/m² | - |
| 1778080892 | 2.22° C | 61% | 1011.7 hPa | 0 mm | - | 110 W/m² | - |
| 1778080591 | 2.78° C | 60% | 1011.8 hPa | 0 mm | - | 133 W/m² | - |
| 1778080287 | 2.22° C | 62% | 1011.7 hPa | 0 mm | - | 150 W/m² | - |
| 1778079984 | 2.22° C | 61% | 1011.8 hPa | 0 mm | - | 113 W/m² | - |
| 1778079681 | 2.22° C | 61% | 1011.7 hPa | 0 mm | - | 112 W/m² | - |
| 1778079378 | 2.22° C | 62% | 1011.8 hPa | 0 mm | - | 132 W/m² | - |
| 1778079075 | 2.22° C | 62% | 1011.6 hPa | 0 mm | - | 135 W/m² | - |
| 1778078772 | 2.22° C | 62% | 1011.6 hPa | 0 mm | - | 112 W/m² | - |
| 1778078469 | 2.22° C | 61% | 1011.6 hPa | 0 mm | - | 116 W/m² | - |
| 1778078167 | 2.22° C | 61% | 1011.7 hPa | 0 mm | - | 157 W/m² | - |
| 1778077864 | 2.22° C | 63% | 1011.5 hPa | 0 mm | - | 143 W/m² | - |
| 1778077562 | 2.22° C | 63% | 1011.4 hPa | 0 mm | - | 115 W/m² | - |
| 1778077260 | 2.22° C | 63% | 1011.7 hPa | 0 mm | - | 118 W/m² | - |
| 1778076957 | 1.67° C | 64% | 1011.5 hPa | 0 mm | - | 122 W/m² | - |
* Rain latest hour (hover to see other rain measurements)
** Current wind speed in m/s (hover to see current wind gust speed)